Time;durP1;ratioP1;P1;durP2;ratioP2;P2;SDS_P1;SDS_P2;PMS_P1;PMS_P2;Temp;Humidity;BMP_temperature;BMP_pressure;BME280_temperature;BME280_humidity;BME280_pressure;Samples;Min_cycle;Max_cycle;Signal;HPM_P1;HPM_P2
2023/03/18 00:01:18;;;;;;;75.43;48.78;;;5.20;58.60;;;;;;5056996;28;20044;-66
2023/03/18 00:03:44;;;;;;;85.10;52.85;;;5.10;59.30;;;;;;5056999;28;20099;-64
2023/03/18 00:06:17;;;;;;;86.18;54.67;;;5.00;59.70;;;;;;5057167;28;20103;-67
2023/03/18 00:08:45;;;;;;;99.20;61.90;;;4.80;60.20;;;;;;5057208;28;20108;-69
2023/03/18 00:11:12;;;;;;;98.65;65.28;;;4.80;60.60;;;;;;5056672;28;20031;-69
2023/03/18 00:13:40;;;;;;;79.32;55.83;;;4.70;61.30;;;;;;5056664;28;20100;-67
2023/03/18 00:16:07;;;;;;;89.43;57.55;;;4.70;61.70;;;;;;5056668;28;20463;-70
2023/03/18 00:18:33;;;;;;;92.25;61.75;;;4.70;61.90;;;;;;5056589;28;20021;-69
2023/03/18 00:21:00;;;;;;;78.72;50.85;;;4.70;62.40;;;;;;5056959;28;20025;-69
2023/03/18 00:23:27;;;;;;;73.55;48.60;;;4.60;62.60;;;;;;5056502;28;20082;-66
2023/03/18 00:25:55;;;;;;;100.13;66.30;;;4.60;62.60;;;;;;5056733;28;20079;-64
2023/03/18 00:28:22;;;;;;;82.55;54.63;;;4.60;62.90;;;;;;5056729;28;20075;-66
2023/03/18 00:30:48;;;;;;;77.80;51.15;;;4.50;62.90;;;;;;5056542;28;20036;-68
2023/03/18 00:33:15;;;;;;;81.60;52.97;;;4.60;63.00;;;;;;5056474;28;20382;-68
2023/03/18 00:35:41;;;;;;;69.07;45.17;;;4.70;63.30;;;;;;5056253;28;20402;-61
2023/03/18 00:38:08;;;;;;;62.92;42.20;;;4.60;63.60;;;;;;5056306;28;20387;-64
2023/03/18 00:41:00;;;;;;;50.97;35.83;;;4.50;63.90;;;;;;5056010;28;20035;-66
2023/03/18 00:43:34;;;;;;;46.50;29.65;;;4.50;64.10;;;;;;5056317;28;20032;-63
2023/03/18 00:46:00;;;;;;;41.47;27.20;;;4.70;64.30;;;;;;5055988;28;20475;-66
2023/03/18 00:48:26;;;;;;;40.80;27.65;;;4.70;63.60;;;;;;5056095;28;20116;-63
2023/03/18 00:50:52;;;;;;;45.10;27.17;;;4.70;62.50;;;;;;5055928;28;20020;-63
2023/03/18 00:53:18;;;;;;;35.92;24.33;;;4.70;62.80;;;;;;5056065;28;20044;-70
2023/03/18 00:55:44;;;;;;;32.67;22.13;;;4.80;63.20;;;;;;5055879;28;20056;-67
2023/03/18 00:58:11;;;;;;;31.55;21.63;;;4.90;63.30;;;;;;5055391;28;20025;-67
2023/03/18 01:00:38;;;;;;;28.85;19.77;;;4.90;62.80;;;;;;5055752;28;20068;-68
2023/03/18 01:03:05;;;;;;;30.08;20.08;;;4.90;62.80;;;;;;5055870;28;20021;-62
2023/03/18 01:05:31;;;;;;;34.45;23.25;;;5.00;62.80;;;;;;5056172;28;20082;-67
2023/03/18 01:07:58;;;;;;;33.03;21.02;;;5.00;62.40;;;;;;5055618;28;20025;-63
2023/03/18 01:10:26;;;;;;;29.08;18.90;;;4.90;63.50;;;;;;5055659;28;20548;-62
2023/03/18 01:12:52;;;;;;;33.60;22.35;;;4.90;63.10;;;;;;5055585;28;20391;-64
2023/03/18 01:15:20;;;;;;;42.88;26.10;;;4.90;62.80;;;;;;5055776;28;20099;-62
2023/03/18 01:17:47;;;;;;;35.35;22.80;;;4.80;62.90;;;;;;5055750;28;20494;-67
2023/03/18 01:20:16;;;;;;;32.50;22.45;;;4.70;63.00;;;;;;5055335;28;20033;-70
2023/03/18 01:22:42;;;;;;;40.88;26.63;;;4.80;63.20;;;;;;5055300;28;20056;-63
2023/03/18 01:25:09;;;;;;;35.45;23.65;;;4.80;63.30;;;;;;5055521;28;20382;-65
2023/03/18 01:27:35;;;;;;;31.25;21.17;;;4.60;63.40;;;;;;5055687;28;20091;-66
2023/03/18 01:30:02;;;;;;;28.20;19.00;;;4.60;64.50;;;;;;5055422;28;20036;-68
2023/03/18 01:32:28;;;;;;;29.10;17.65;;;4.60;65.20;;;;;;5055217;28;20494;-61
2023/03/18 01:34:54;;;;;;;25.45;16.33;;;4.60;65.20;;;;;;5055093;28;20045;-66
2023/03/18 01:37:20;;;;;;;31.75;19.23;;;4.60;65.50;;;;;;5055242;28;20040;-71
2023/03/18 01:39:46;;;;;;;27.15;18.40;;;4.70;65.20;;;;;;5054909;28;20082;-66
2023/03/18 01:42:13;;;;;;;27.70;16.55;;;4.60;64.60;;;;;;5055281;28;20018;-62
2023/03/18 01:44:39;;;;;;;28.70;17.63;;;4.60;64.60;;;;;;5055098;28;20021;-67
2023/03/18 01:47:06;;;;;;;25.15;16.40;;;4.60;63.90;;;;;;5055102;28;20193;-68
2023/03/18 01:49:38;;;;;;;32.58;20.30;;;4.60;63.90;;;;;;5054926;28;20029;-66
2023/03/18 01:52:12;;;;;;;27.40;19.35;;;4.70;63.70;;;;;;5054833;28;20040;-72
2023/03/18 01:54:42;;;;;;;25.30;17.52;;;4.60;64.10;;;;;;5054933;28;20475;-66
2023/03/18 01:57:08;;;;;;;26.77;17.75;;;4.60;64.60;;;;;;5054803;28;20021;-68
2023/03/18 01:59:38;;;;;;;22.98;16.08;;;4.60;64.00;;;;;;5054885;28;20029;-67
2023/03/18 02:02:08;;;;;;;28.90;19.17;;;4.60;64.30;;;;;;5054690;28;20488;-63
2023/03/18 02:04:41;;;;;;;26.35;17.58;;;4.60;63.60;;;;;;5054765;28;20100;-64
2023/03/18 02:07:14;;;;;;;23.10;15.73;;;4.40;63.60;;;;;;5055023;28;20021;-68
2023/03/18 02:09:40;;;;;;;19.33;14.38;;;4.40;63.70;;;;;;5054315;28;20021;-72
2023/03/18 02:12:07;;;;;;;27.08;18.75;;;4.50;63.30;;;;;;5053881;28;20058;-68
2023/03/18 02:14:33;;;;;;;21.48;15.52;;;4.50;63.20;;;;;;5054806;28;20062;-65
2023/03/18 02:17:01;;;;;;;21.90;14.88;;;4.40;64.30;;;;;;5054647;28;20025;-67
2023/03/18 02:20:17;;;;;;;23.63;14.70;;;4.40;64.10;;;;;;5054630;28;20032;-65
2023/03/18 02:22:57;;;;;;;23.10;15.35;;;4.40;63.80;;;;;;5052458;28;20113;-66
2023/03/18 02:25:53;;;;;;;18.90;12.98;;;4.40;64.20;;;;;;5054250;28;20088;-63
2023/03/18 02:28:26;;;;;;;20.17;13.75;;;4.30;64.40;;;;;;5054238;28;20040;-66
2023/03/18 02:30:56;;;;;;;18.45;12.73;;;4.30;65.90;;;;;;5054480;28;20056;-64
2023/03/18 02:33:26;;;;;;;19.48;12.95;;;4.30;67.40;;;;;;5054093;28;20025;-64
2023/03/18 02:35:58;;;;;;;16.13;11.25;;;4.20;67.70;;;;;;5053924;28;20510;-68
2023/03/18 02:38:23;;;;;;;18.13;13.00;;;4.20;68.00;;;;;;5054367;28;20367;-62
2023/03/18 02:40:49;;;;;;;21.70;15.55;;;4.20;68.40;;;;;;5053839;28;20040;-65
2023/03/18 02:43:25;;;;;;;20.90;14.05;;;4.20;68.00;;;;;;5054085;28;20043;-64
2023/03/18 02:45:56;;;;;;;19.02;12.98;;;4.20;67.50;;;;;;5054035;28;20160;-68
2023/03/18 02:48:26;;;;;;;29.02;18.23;;;4.10;68.20;;;;;;5053896;28;20021;-66
2023/03/18 02:50:53;;;;;;;22.95;15.95;;;4.20;67.50;;;;;;5054097;28;20035;-65
2023/03/18 02:53:19;;;;;;;20.27;13.65;;;4.10;67.80;;;;;;5053860;28;20061;-68
2023/03/18 02:55:45;;;;;;;24.17;15.35;;;4.10;68.60;;;;;;5053622;28;20048;-67
2023/03/18 02:58:11;;;;;;;20.80;14.25;;;4.10;68.40;;;;;;5053733;28;20025;-65
2023/03/18 03:00:37;;;;;;;19.17;13.07;;;4.00;69.10;;;;;;5053608;28;20107;-67
2023/03/18 03:03:04;;;;;;;17.33;12.27;;;4.00;70.10;;;;;;5053658;28;20021;-66
2023/03/18 03:05:32;;;;;;;15.18;10.90;;;4.00;70.00;;;;;;5053586;28;20388;-67
2023/03/18 03:07:58;;;;;;;15.52;10.43;;;4.10;70.50;;;;;;5053331;28;20021;-67
2023/03/18 03:10:24;;;;;;;15.55;10.80;;;4.10;70.00;;;;;;5053419;28;20025;-71
2023/03/18 03:12:50;;;;;;;13.95;10.10;;;4.10;69.50;;;;;;5053703;28;20053;-64
2023/03/18 03:15:16;;;;;;;14.30;10.00;;;4.20;69.00;;;;;;5053628;28;20052;-63
2023/03/18 03:17:42;;;;;;;14.50;9.18;;;4.10;70.30;;;;;;5053412;28;20440;-69
2023/03/18 03:20:08;;;;;;;16.58;10.55;;;4.10;70.20;;;;;;5053393;28;20537;-67
2023/03/18 03:22:35;;;;;;;16.90;10.75;;;4.10;69.80;;;;;;5052999;28;20021;-68
2023/03/18 03:25:01;;;;;;;13.43;9.75;;;4.00;69.40;;;;;;5053401;28;20107;-68
2023/03/18 03:27:28;;;;;;;19.33;13.30;;;4.00;70.70;;;;;;5053274;28;20104;-70
2023/03/18 03:29:54;;;;;;;14.18;9.98;;;4.00;70.20;;;;;;5053060;28;20017;-62
2023/03/18 03:32:20;;;;;;;14.73;9.93;;;3.90;71.00;;;;;;5053355;28;20029;-67
2023/03/18 03:34:46;;;;;;;13.25;9.68;;;3.90;71.70;;;;;;5053140;28;20056;-68
2023/03/18 03:37:13;;;;;;;16.27;10.00;;;3.90;70.40;;;;;;5053129;28;20021;-71
2023/03/18 03:39:39;;;;;;;20.45;13.85;;;3.90;69.90;;;;;;5053184;28;20397;-62
2023/03/18 03:42:05;;;;;;;19.58;13.80;;;3.80;69.80;;;;;;5053064;28;20033;-65
2023/03/18 03:44:30;;;;;;;16.38;11.40;;;3.60;70.30;;;;;;5053431;28;20032;-60
2023/03/18 03:46:56;;;;;;;13.93;10.13;;;3.50;71.60;;;;;;5053060;28;20028;-67
2023/03/18 03:49:22;;;;;;;15.18;10.15;;;3.50;71.30;;;;;;5053079;28;20380;-67
2023/03/18 03:51:48;;;;;;;17.00;11.95;;;3.60;70.80;;;;;;5052533;28;20126;-67
2023/03/18 03:54:14;;;;;;;13.80;10.35;;;3.60;70.40;;;;;;5053350;28;20025;-65
2023/03/18 03:56:41;;;;;;;14.88;10.40;;;3.50;71.00;;;;;;5053060;28;20021;-66
2023/03/18 03:59:07;;;;;;;13.88;9.65;;;3.60;70.20;;;;;;5053176;28;20025;-65
2023/03/18 04:01:33;;;;;;;13.07;8.82;;;3.70;70.50;;;;;;5052979;28;20028;-63
2023/03/18 04:04:01;;;;;;;13.05;9.55;;;3.70;70.10;;;;;;5052840;28;20028;-67
2023/03/18 04:06:27;;;;;;;12.43;8.52;;;3.70;70.10;;;;;;5052875;28;20021;-71
2023/03/18 04:08:53;;;;;;;13.05;9.27;;;3.70;70.40;;;;;;5053373;28;20466;-67
2023/03/18 04:11:20;;;;;;;15.75;10.90;;;3.70;70.20;;;;;;5052724;28;20071;-65
2023/03/18 04:13:45;;;;;;;14.45;9.55;;;3.70;70.30;;;;;;5052723;28;20072;-63
2023/03/18 04:16:11;;;;;;;12.20;8.60;;;3.70;70.50;;;;;;5052883;28;20049;-63
2023/03/18 04:18:37;;;;;;;11.80;8.60;;;3.60;71.60;;;;;;5053009;28;20021;-67
2023/03/18 04:21:03;;;;;;;12.90;8.60;;;3.60;71.50;;;;;;5052851;28;20074;-68
2023/03/18 04:23:29;;;;;;;12.40;8.80;;;3.70;71.00;;;;;;5052834;28;20022;-61
2023/03/18 04:25:54;;;;;;;12.05;8.43;;;3.70;70.90;;;;;;5052927;28;20025;-63
2023/03/18 04:28:20;;;;;;;12.93;9.25;;;3.70;70.80;;;;;;5052746;28;20526;-62
2023/03/18 04:30:47;;;;;;;13.93;10.10;;;3.70;71.30;;;;;;5052775;28;20040;-67
2023/03/18 04:33:13;;;;;;;15.43;10.40;;;3.60;70.50;;;;;;5052876;28;20039;-69
2023/03/18 04:35:40;;;;;;;16.52;10.90;;;3.60;70.70;;;;;;5056362;28;20049;-67
2023/03/18 04:38:05;;;;;;;14.48;10.80;;;3.60;70.70;;;;;;5056215;28;20037;-69
2023/03/18 04:40:31;;;;;;;12.88;10.18;;;3.50;70.80;;;;;;5056334;28;20025;-68
2023/03/18 04:42:57;;;;;;;14.13;10.43;;;3.50;71.00;;;;;;5056523;28;20025;-68
2023/03/18 04:45:23;;;;;;;15.98;10.93;;;3.50;70.60;;;;;;5056300;28;20052;-63
2023/03/18 04:47:49;;;;;;;22.55;15.15;;;3.50;70.40;;;;;;5056030;28;20117;-61
2023/03/18 04:50:15;;;;;;;24.65;17.80;;;3.50;70.60;;;;;;5055815;28;20104;-68
2023/03/18 04:52:42;;;;;;;28.13;18.38;;;3.30;71.30;;;;;;5056354;28;20035;-61
2023/03/18 04:55:09;;;;;;;23.75;14.73;;;3.20;72.20;;;;;;5056129;28;20471;-63
2023/03/18 04:57:36;;;;;;;18.42;12.65;;;3.10;72.90;;;;;;5056021;28;20058;-65
2023/03/18 05:00:07;;;;;;;18.20;13.05;;;3.20;73.40;;;;;;5055788;28;20037;-65
2023/03/18 05:02:32;;;;;;;18.17;13.98;;;3.20;73.20;;;;;;5056107;28;20029;-63
2023/03/18 05:05:00;;;;;;;16.73;12.55;;;3.30;72.90;;;;;;5055751;28;20044;-66
2023/03/18 05:07:26;;;;;;;19.23;13.05;;;3.40;73.40;;;;;;5055774;28;20483;-71
2023/03/18 05:09:51;;;;;;;19.88;13.48;;;3.40;73.80;;;;;;5055837;28;20032;-64
2023/03/18 05:12:17;;;;;;;17.73;12.38;;;3.40;73.50;;;;;;5055632;28;20487;-69
2023/03/18 05:14:44;;;;;;;16.30;12.32;;;3.50;73.00;;;;;;5055634;28;20021;-64
2023/03/18 05:17:14;;;;;;;17.33;13.50;;;3.50;72.90;;;;;;5055494;28;20025;-66
2023/03/18 05:19:45;;;;;;;15.60;11.60;;;3.50;72.20;;;;;;5055868;28;20025;-67
2023/03/18 05:22:12;;;;;;;17.50;11.77;;;3.50;72.00;;;;;;5055551;28;20379;-69
2023/03/18 05:24:39;;;;;;;18.13;12.20;;;3.50;72.60;;;;;;5055469;28;20029;-64
2023/03/18 05:27:04;;;;;;;13.52;9.80;;;3.50;73.10;;;;;;5055683;28;20380;-67
2023/03/18 05:29:31;;;;;;;13.10;9.88;;;3.50;73.10;;;;;;5055304;28;20025;-67
2023/03/18 05:31:57;;;;;;;15.65;11.18;;;3.60;73.00;;;;;;5055175;28;20021;-65
2023/03/18 05:34:23;;;;;;;16.63;11.75;;;3.60;72.70;;;;;;5055331;28;20048;-65
2023/03/18 05:36:48;;;;;;;14.65;10.05;;;3.70;72.70;;;;;;5055066;28;20049;-70
2023/03/18 05:39:15;;;;;;;23.73;16.27;;;3.70;72.80;;;;;;5055183;28;20029;-66
2023/03/18 05:41:40;;;;;;;31.45;20.15;;;3.70;72.70;;;;;;5055237;28;20434;-65
2023/03/18 05:44:06;;;;;;;41.13;26.23;;;3.50;73.60;;;;;;5054911;28;20017;-64
2023/03/18 05:46:32;;;;;;;45.53;29.35;;;3.40;75.30;;;;;;5055331;28;20025;-65
2023/03/18 05:48:58;;;;;;;38.97;26.40;;;3.40;75.80;;;;;;5054721;28;20021;-67
2023/03/18 05:51:25;;;;;;;30.30;20.33;;;3.40;75.90;;;;;;5054921;28;20036;-67
2023/03/18 05:53:51;;;;;;;51.45;36.47;;;3.50;75.50;;;;;;5055066;28;20040;-66
2023/03/18 05:56:17;;;;;;;109.85;78.65;;;3.50;75.70;;;;;;5054847;28;20379;-66
2023/03/18 05:58:43;;;;;;;121.40;83.72;;;3.40;77.90;;;;;;5054916;28;20025;-66
2023/03/18 06:01:10;;;;;;;187.07;128.32;;;3.30;79.60;;;;;;5054745;28;20032;-65
2023/03/18 06:03:36;;;;;;;178.55;123.35;;;3.20;81.20;;;;;;5054813;28;20498;-68
2023/03/18 06:06:02;;;;;;;227.68;153.80;;;3.20;82.10;;;;;;5054588;28;20025;-68
2023/03/18 06:08:28;;;;;;;174.02;127.85;;;3.20;83.10;;;;;;5054649;28;20021;-63
2023/03/18 06:10:54;;;;;;;148.80;109.60;;;3.20;83.40;;;;;;5054795;28;20127;-66
2023/03/18 06:13:20;;;;;;;150.32;109.05;;;3.30;83.50;;;;;;5054340;28;20025;-67
2023/03/18 06:15:46;;;;;;;154.43;117.43;;;3.50;83.70;;;;;;5054612;28;20104;-64
2023/03/18 06:18:12;;;;;;;138.77;102.93;;;3.40;85.30;;;;;;5054447;28;20101;-66
2023/03/18 06:20:38;;;;;;;138.20;101.55;;;3.30;88.50;;;;;;5054623;28;20457;-69
2023/03/18 06:23:04;;;;;;;134.45;95.93;;;3.30;88.80;;;;;;5054530;28;20025;-70
2023/03/18 06:25:30;;;;;;;149.77;108.80;;;3.30;90.00;;;;;;5054771;28;20479;-68
2023/03/18 06:27:56;;;;;;;131.10;92.40;;;4.70;90.00;;;;;;5054388;28;20375;-60
2023/03/18 06:30:22;;;;;;;106.20;79.65;;;8.00;73.70;;;;;;5054089;28;20071;-67
2023/03/18 06:32:48;;;;;;;73.47;56.00;;;10.40;64.40;;;;;;5054179;28;20029;-68
2023/03/18 06:35:15;;;;;;;56.38;47.10;;;12.30;55.40;;;;;;5053972;28;20052;-63
2023/03/18 06:37:42;;;;;;;51.50;42.83;;;13.30;52.10;;;;;;5054145;28;20030;-66
2023/03/18 06:40:09;;;;;;;81.35;62.47;;;14.30;49.50;;;;;;5054081;28;20391;-68
2023/03/18 06:42:35;;;;;;;78.32;60.55;;;15.00;47.20;;;;;;5054055;28;20028;-67
2023/03/18 06:45:01;;;;;;;79.78;60.05;;;15.50;44.80;;;;;;5054167;28;20024;-65
2023/03/18 06:47:28;;;;;;;158.07;104.10;;;15.90;44.70;;;;;;5054294;28;20053;-68
2023/03/18 06:49:54;;;;;;;82.75;62.85;;;16.80;43.20;;;;;;5053214;28;20028;-67
2023/03/18 06:52:22;;;;;;;133.02;102.75;;;17.10;41.60;;;;;;5053883;28;20029;-63
2023/03/18 06:54:48;;;;;;;95.85;76.20;;;17.20;41.60;;;;;;5054078;28;20112;-66
2023/03/18 06:57:13;;;;;;;92.28;71.53;;;17.60;40.50;;;;;;5053242;28;20056;-69
2023/03/18 06:59:39;;;;;;;120.70;94.32;;;18.40;40.00;;;;;;5053970;28;20428;-67
2023/03/18 07:02:07;;;;;;;136.75;103.57;;;19.00;38.50;;;;;;5053827;28;20037;-71
2023/03/18 07:04:33;;;;;;;141.43;102.65;;;19.50;37.70;;;;;;5053880;28;20045;-70
2023/03/18 07:06:59;;;;;;;121.13;92.43;;;20.20;38.20;;;;;;5053614;28;20452;-69
2023/03/18 07:09:25;;;;;;;106.38;83.43;;;21.00;37.60;;;;;;5053537;28;20021;-65
2023/03/18 07:11:52;;;;;;;93.60;75.75;;;21.90;35.70;;;;;;5053307;28;20028;-64
2023/03/18 07:14:18;;;;;;;62.53;52.65;;;23.10;34.00;;;;;;5053206;28;20025;-66
2023/03/18 07:16:44;;;;;;;42.05;37.42;;;23.50;32.40;;;;;;5053045;28;20031;-62
2023/03/18 07:19:10;;;;;;;34.97;30.20;;;23.60;32.00;;;;;;5053379;28;20032;-66
2023/03/18 07:21:36;;;;;;;29.45;25.05;;;24.00;32.20;;;;;;5053687;28;20025;-67
2023/03/18 07:24:02;;;;;;;25.48;22.73;;;24.00;30.50;;;;;;5053523;28;20082;-64
2023/03/18 07:26:29;;;;;;;21.58;19.38;;;24.40;31.30;;;;;;5053417;28;20429;-67
2023/03/18 07:28:55;;;;;;;22.00;19.38;;;25.30;30.60;;;;;;5053585;28;20017;-64
2023/03/18 07:31:21;;;;;;;19.00;16.73;;;26.00;29.70;;;;;;5053242;28;20391;-66
2023/03/18 07:33:47;;;;;;;19.42;16.85;;;26.50;29.60;;;;;;5053195;28;20025;-64
2023/03/18 07:36:14;;;;;;;17.73;14.75;;;26.80;29.40;;;;;;5053102;28;20512;-64
2023/03/18 07:38:39;;;;;;;14.02;12.45;;;27.30;28.80;;;;;;5052090;28;20033;-67
2023/03/18 07:41:06;;;;;;;19.42;16.40;;;27.70;28.80;;;;;;5053270;28;20108;-67
2023/03/18 07:43:32;;;;;;;15.15;13.55;;;28.20;27.60;;;;;;5053248;28;20021;-64
2023/03/18 07:45:57;;;;;;;17.90;14.88;;;28.80;27.80;;;;;;5052952;28;20033;-64
2023/03/18 07:48:23;;;;;;;14.43;12.93;;;29.20;27.30;;;;;;5053101;28;20486;-62
2023/03/18 07:50:49;;;;;;;12.40;11.20;;;29.50;26.10;;;;;;5052611;28;20021;-61
2023/03/18 07:53:15;;;;;;;11.38;10.27;;;29.60;26.30;;;;;;5052987;28;20079;-62
2023/03/18 07:55:41;;;;;;;13.90;12.50;;;29.80;27.00;;;;;;5053107;28;20100;-62
2023/03/18 07:58:10;;;;;;;15.63;14.02;;;29.70;26.80;;;;;;5052974;28;20104;-64
2023/03/18 08:00:36;;;;;;;16.52;14.98;;;29.30;26.80;;;;;;5053099;28;20025;-67
2023/03/18 08:03:02;;;;;;;16.45;14.23;;;29.40;26.10;;;;;;5052955;28;20017;-69
2023/03/18 08:05:28;;;;;;;16.90;15.07;;;29.40;26.80;;;;;;5052949;28;20021;-68
2023/03/18 08:07:54;;;;;;;17.15;15.48;;;29.80;26.00;;;;;;5052999;28;20095;-64
2023/03/18 08:10:20;;;;;;;17.65;15.85;;;30.10;26.10;;;;;;5056539;28;20029;-69
2023/03/18 08:12:45;;;;;;;19.02;16.90;;;30.20;26.10;;;;;;5056791;28;20040;-65
2023/03/18 08:15:11;;;;;;;18.17;16.33;;;30.50;26.60;;;;;;5057243;28;20025;-67
2023/03/18 08:17:38;;;;;;;20.83;18.73;;;30.80;26.30;;;;;;5057011;28;20459;-67
2023/03/18 08:20:05;;;;;;;19.17;17.23;;;31.00;25.90;;;;;;5056632;28;20467;-68
2023/03/18 08:22:31;;;;;;;24.23;21.63;;;31.20;26.40;;;;;;5056847;28;20021;-64
2023/03/18 08:24:57;;;;;;;20.70;18.60;;;31.10;25.60;;;;;;5057110;28;20106;-66
2023/03/18 08:27:23;;;;;;;20.45;18.33;;;30.90;26.50;;;;;;5056664;28;20025;-63
2023/03/18 08:29:49;;;;;;;22.67;20.42;;;30.80;26.10;;;;;;5056354;28;20028;-67
2023/03/18 08:32:15;;;;;;;21.67;19.38;;;31.00;25.70;;;;;;5056542;28;20372;-67
2023/03/18 08:34:42;;;;;;;19.92;17.90;;;30.60;26.20;;;;;;5056748;28;20445;-61
2023/03/18 08:37:08;;;;;;;19.35;17.42;;;29.90;26.70;;;;;;5056342;28;20104;-66
2023/03/18 08:39:34;;;;;;;19.83;17.83;;;29.90;26.50;;;;;;5056163;28;20047;-59
2023/03/18 08:42:03;;;;;;;21.77;19.48;;;29.70;27.40;;;;;;5056172;28;20029;-66
2023/03/18 08:44:29;;;;;;;20.70;18.70;;;29.80;26.10;;;;;;5056246;28;20028;-63
2023/03/18 08:46:56;;;;;;;20.55;18.55;;;29.60;27.70;;;;;;5056248;28;20040;-60
2023/03/18 08:49:23;;;;;;;19.88;17.88;;;29.50;27.80;;;;;;5056259;28;20120;-66
2023/03/18 08:51:49;;;;;;;21.85;19.65;;;29.60;27.10;;;;;;5055597;28;20032;-67
2023/03/18 08:54:15;;;;;;;19.35;17.55;;;29.40;27.50;;;;;;5056070;28;20033;-64
2023/03/18 08:56:41;;;;;;;20.55;18.33;;;28.60;26.90;;;;;;5055921;28;20026;-60
2023/03/18 08:59:07;;;;;;;20.83;18.25;;;28.40;27.60;;;;;;5055972;28;20070;-63
2023/03/18 09:01:33;;;;;;;20.08;17.98;;;28.00;27.70;;;;;;5056217;28;20021;-66
2023/03/18 09:03:59;;;;;;;18.25;16.45;;;27.70;28.10;;;;;;5055683;28;20017;-67
2023/03/18 09:06:26;;;;;;;17.70;16.10;;;27.30;28.50;;;;;;5055878;28;20383;-63
2023/03/18 09:08:52;;;;;;;17.02;15.35;;;26.90;28.00;;;;;;5056063;28;20060;-64
2023/03/18 09:11:18;;;;;;;17.17;15.48;;;26.50;28.20;;;;;;5055658;28;20450;-61
2023/03/18 09:13:44;;;;;;;17.08;15.38;;;26.40;28.80;;;;;;5055676;28;20029;-63
2023/03/18 09:16:09;;;;;;;16.20;14.60;;;25.40;29.20;;;;;;5055555;28;20021;-66
2023/03/18 09:18:35;;;;;;;15.15;13.75;;;24.60;29.30;;;;;;5055659;28;20079;-65
2023/03/18 09:21:03;;;;;;;14.70;13.30;;;24.20;30.00;;;;;;5055384;28;20039;-67
2023/03/18 09:23:30;;;;;;;14.50;13.10;;;23.70;31.10;;;;;;5055638;28;20071;-64
2023/03/18 09:25:56;;;;;;;13.95;12.65;;;23.50;29.70;;;;;;5055286;28;20079;-65
2023/03/18 09:28:22;;;;;;;14.70;13.20;;;23.50;29.50;;;;;;5055375;28;20467;-69
2023/03/18 09:30:49;;;;;;;12.85;11.57;;;23.10;30.80;;;;;;5055552;28;20025;-62
2023/03/18 09:33:15;;;;;;;13.60;12.20;;;22.80;31.40;;;;;;5055317;28;20095;-63
2023/03/18 09:35:41;;;;;;;12.55;11.35;;;22.30;32.20;;;;;;5055133;28;20388;-64
2023/03/18 09:38:12;;;;;;;12.23;11.02;;;22.10;32.20;;;;;;5055099;28;20090;-64
2023/03/18 09:41:15;;;;;;;12.00;10.80;;;22.30;30.70;;;;;;5054960;28;20502;-61
2023/03/18 09:43:53;;;;;;;12.40;11.20;;;22.40;30.50;;;;;;5053345;28;20037;-66
2023/03/18 09:46:25;;;;;;;11.23;10.23;;;22.30;34.80;;;;;;5055250;28;20293;-61
2023/03/18 09:48:56;;;;;;;11.82;10.73;;;22.20;32.50;;;;;;5055040;28;20021;-66
2023/03/18 09:51:57;;;;;;;10.15;9.25;;;22.40;31.10;;;;;;5054875;28;20033;-65
2023/03/18 09:54:40;;;;;;;9.00;8.15;;;22.90;29.90;;;;;;5054912;28;20395;-67
2023/03/18 09:57:16;;;;;;;8.55;7.63;;;23.20;33.00;;;;;;5054887;28;20483;-65
2023/03/18 09:59:49;;;;;;;7.75;7.05;;;23.40;30.30;;;;;;5054908;28;20021;-65
2023/03/18 10:02:25;;;;;;;7.10;6.43;;;23.80;29.10;;;;;;5054625;28;20025;-63
2023/03/18 10:05:02;;;;;;;7.75;6.95;;;24.20;29.30;;;;;;5054734;28;20506;-64
2023/03/18 10:07:34;;;;;;;6.63;6.03;;;24.30;31.70;;;;;;5054594;28;20071;-61
2023/03/18 10:10:06;;;;;;;6.63;6.05;;;24.00;30.10;;;;;;5054726;28;20021;-65
2023/03/18 10:12:47;;;;;;;5.95;5.45;;;23.80;32.60;;;;;;5054729;28;20104;-60
2023/03/18 10:15:33;;;;;;;5.43;5.03;;;23.80;32.10;;;;;;5054516;28;20036;-69
2023/03/18 10:18:14;;;;;;;6.05;5.50;;;24.00;30.70;;;;;;5054324;28;20025;-66
2023/03/18 10:21:17;;;;;;;5.40;4.90;;;24.20;30.20;;;;;;5054534;28;20063;-63
2023/03/18 10:23:48;;;;;;;4.90;4.47;;;24.30;27.80;;;;;;5054292;28;20031;-60
2023/03/18 10:26:49;;;;;;;5.00;4.60;;;24.40;29.20;;;;;;5054318;28;20055;-66
2023/03/18 10:29:27;;;;;;;4.82;4.43;;;24.70;31.10;;;;;;5054193;28;20471;-63
2023/03/18 10:32:20;;;;;;;4.25;3.85;;;24.80;31.60;;;;;;5053269;28;20110;-66
2023/03/18 10:35:04;;;;;;;;;;;24.90;29.40;;;;;;5054574;28;20025;-63
2023/03/18 10:37:50;;;;;;;4.28;3.97;;;25.10;31.20;;;;;;5054030;28;19920;-67
2023/03/18 10:40:18;;;;;;;3.75;3.45;;;24.90;28.30;;;;;;5054058;28;20378;-64
2023/03/18 10:42:44;;;;;;;4.47;3.58;;;24.90;28.70;;;;;;5054044;28;20383;-66
2023/03/18 10:45:13;;;;;;;3.00;2.80;;;24.90;30.00;;;;;;5053932;28;20104;-65
2023/03/18 10:47:45;;;;;;;3.00;2.80;;;25.00;27.40;;;;;;5053925;28;20107;-66
2023/03/18 10:50:19;;;;;;;3.13;2.83;;;24.70;27.60;;;;;;5053670;28;20437;-63
2023/03/18 10:52:56;;;;;;;2.47;2.28;;;24.60;27.60;;;;;;5053819;28;20103;-68
2023/03/18 10:55:30;;;;;;;2.33;2.17;;;24.60;28.90;;;;;;5053860;28;20071;-66
2023/03/18 10:57:56;;;;;;;1.80;1.70;;;24.90;30.30;;;;;;5053587;28;20483;-64
2023/03/18 11:00:33;;;;;;;2.03;1.92;;;24.90;26.50;;;;;;5053760;28;20356;-62
2023/03/18 11:03:00;;;;;;;2.25;1.88;;;25.10;27.80;;;;;;5053576;28;20021;-65
2023/03/18 11:05:33;;;;;;;2.25;2.15;;;25.10;29.90;;;;;;5053536;28;20459;-65
2023/03/18 11:08:05;;;;;;;2.65;1.98;;;25.40;29.20;;;;;;5053410;28;20028;-64
2023/03/18 11:10:39;;;;;;;2.20;2.00;;;25.60;29.80;;;;;;5053472;28;20029;-68
2023/03/18 11:13:05;;;;;;;1.90;1.80;;;25.70;29.40;;;;;;5053139;28;20068;-64
2023/03/18 11:15:48;;;;;;;1.98;1.88;;;25.70;27.30;;;;;;5051912;28;20017;-66
2023/03/18 11:18:17;;;;;;;1.55;1.45;;;25.80;29.10;;;;;;5053750;28;20036;-64
2023/03/18 11:20:44;;;;;;;1.70;1.60;;;26.20;30.00;;;;;;5053336;28;20021;-64
2023/03/18 11:23:19;;;;;;;3.63;2.20;;;26.20;28.00;;;;;;5053665;28;20027;-67
2023/03/18 11:25:54;;;;;;;2.33;2.13;;;25.60;27.30;;;;;;5053313;28;20074;-65
2023/03/18 11:28:27;;;;;;;2.30;2.10;;;25.30;29.80;;;;;;5053303;28;20046;-68
2023/03/18 11:30:56;;;;;;;;;;;25.40;29.30;;;;;;5053642;28;20037;-63
2023/03/18 11:33:31;;;;;;;3.45;2.25;;;25.70;29.00;;;;;;5053212;28;19909;-64
2023/03/18 11:35:59;;;;;;;2.60;2.40;;;25.50;26.90;;;;;;5052999;28;20394;-68
2023/03/18 11:38:28;;;;;;;2.90;2.60;;;24.90;26.60;;;;;;5053268;28;20368;-62
2023/03/18 11:41:21;;;;;;;2.25;2.10;;;24.60;27.70;;;;;;5052984;28;20029;-60
2023/03/18 11:43:59;;;;;;;2.53;2.30;;;24.80;28.10;;;;;;5058071;28;20465;-67
2023/03/18 11:46:35;;;;;;;2.50;2.30;;;25.30;28.10;;;;;;5059801;28;20029;-63
2023/03/18 11:49:00;;;;;;;2.50;2.30;;;25.20;27.90;;;;;;5059965;28;20036;-64
2023/03/18 11:52:05;;;;;;;2.40;2.20;;;25.40;28.20;;;;;;5059318;28;20024;-61
2023/03/18 11:55:03;;;;;;;4.80;4.40;;;25.80;29.20;;;;;;5060025;28;20021;-67
2023/03/18 11:57:39;;;;;;;3.60;3.30;;;26.00;29.10;;;;;;5059674;28;20490;-63
2023/03/18 12:00:19;;;;;;;3.03;2.72;;;26.40;29.90;;;;;;5059623;28;20028;-63
2023/03/18 12:03:18;;;;;;;2.88;2.58;;;26.60;30.40;;;;;;5059507;28;20025;-63
2023/03/18 12:05:52;;;;;;;2.20;2.10;;;26.80;28.90;;;;;;5059677;28;20479;-64
2023/03/18 12:08:30;;;;;;;3.00;2.70;;;26.70;28.30;;;;;;5059570;28;20024;-66
2023/03/18 12:11:34;;;;;;;3.40;3.10;;;26.80;27.20;;;;;;5059846;28;20033;-67
2023/03/18 12:14:00;;;;;;;3.03;2.53;;;26.90;27.40;;;;;;5058645;28;20036;-64
2023/03/18 12:16:44;;;;;;;2.92;2.72;;;26.60;27.90;;;;;;5059519;28;20082;-65
2023/03/18 12:19:18;;;;;;;2.70;2.50;;;26.20;29.20;;;;;;5059710;28;20068;-66
2023/03/18 12:22:02;;;;;;;2.70;2.50;;;26.10;28.10;;;;;;5059511;28;20028;-66
2023/03/18 12:24:53;;;;;;;2.28;2.10;;;26.30;27.90;;;;;;5059369;28;20029;-61
2023/03/18 12:27:37;;;;;;;2.50;2.33;;;26.50;29.20;;;;;;5059455;28;20052;-62
2023/03/18 12:30:20;;;;;;;2.20;2.00;;;26.20;27.30;;;;;;5059210;28;20025;-69
2023/03/18 12:33:21;;;;;;;2.53;2.33;;;26.40;27.50;;;;;;5059415;28;20074;-67
2023/03/18 12:35:53;;;;;;;2.40;2.20;;;26.20;28.30;;;;;;5057064;28;20052;-68
2023/03/18 12:38:39;;;;;;;1.95;1.85;;;26.40;28.60;;;;;;5059052;28;20052;-66
2023/03/18 12:41:26;;;;;;;2.15;1.95;;;26.80;30.90;;;;;;5059199;28;20082;-63
2023/03/18 12:44:23;;;;;;;2.97;2.15;;;27.20;29.30;;;;;;5059158;28;20028;-65
2023/03/18 12:46:58;;;;;;;2.50;2.30;;;27.30;28.50;;;;;;5059577;28;20410;-61
2023/03/18 12:49:31;;;;;;;2.45;2.25;;;27.30;28.70;;;;;;5058989;28;20115;-63